createdAt,value
2017-06-16T00:01:59.881Z,81.30
2017-06-16T00:04:31.401Z,81.40
2017-06-16T00:07:03.005Z,81.30
2017-06-16T00:09:34.541Z,81.00
2017-06-16T00:12:06.049Z,81.10
2017-06-16T00:14:38.342Z,81.80
2017-06-16T00:17:09.852Z,81.80
2017-06-16T00:19:41.494Z,82.00
2017-06-16T00:22:12.957Z,81.60
2017-06-16T00:24:39.369Z,81.20
2017-06-16T00:27:10.914Z,80.90
2017-06-16T00:29:42.393Z,80.50
2017-06-16T00:32:14.282Z,80.40
2017-06-16T00:34:46.541Z,80.90
2017-06-16T00:37:18.835Z,81.40
2017-06-16T00:39:50.333Z,81.40
2017-06-16T00:42:21.902Z,81.60
2017-06-16T00:44:53.433Z,81.40
2017-06-16T00:47:25.082Z,81.90
2017-06-16T00:49:56.586Z,82.30
2017-06-16T00:52:28.848Z,81.70
2017-06-16T00:55:01.082Z,81.90
2017-06-16T00:57:32.633Z,81.80
2017-06-16T00:59:59.057Z,81.90
2017-06-16T01:02:30.528Z,82.00
2017-06-16T01:05:02.060Z,82.10
2017-06-16T01:07:33.561Z,82.10
2017-06-16T01:10:05.984Z,82.50
2017-06-16T01:12:37.493Z,82.30
2017-06-16T01:15:09.773Z,82.50
2017-06-16T01:17:41.246Z,82.40
2017-06-16T01:20:12.877Z,82.90
2017-06-16T01:22:44.386Z,83.70
2017-06-16T01:25:15.938Z,83.90
2017-06-16T01:27:47.461Z,83.70
2017-06-16T01:30:18.997Z,83.90
2017-06-16T01:32:50.497Z,83.70
2017-06-16T01:35:22.061Z,84.00
2017-06-16T01:37:53.585Z,84.10
2017-06-16T01:40:25.185Z,84.30
2017-06-16T01:42:57.450Z,83.80
2017-06-16T01:45:29.766Z,83.90
2017-06-16T01:48:01.290Z,83.90
2017-06-16T01:50:32.844Z,84.10
2017-06-16T01:53:04.361Z,84.10
2017-06-16T01:55:35.884Z,84.00
2017-06-16T01:58:02.353Z,84.30
2017-06-16T02:00:33.813Z,84.20
2017-06-16T02:03:06.192Z,83.10
2017-06-16T02:05:38.445Z,84.00
2017-06-16T02:08:04.871Z,84.00
2017-06-16T02:10:36.489Z,83.80
2017-06-16T02:13:07.999Z,83.90
2017-06-16T02:15:40.302Z,84.40
2017-06-16T02:18:11.833Z,84.20
2017-06-16T02:20:43.386Z,84.10
2017-06-16T02:23:15.637Z,84.50
2017-06-16T02:25:47.930Z,84.60
2017-06-16T02:28:20.174Z,84.80
2017-06-16T02:30:51.695Z,84.80
2017-06-16T02:33:23.132Z,84.80
2017-06-16T02:35:54.645Z,84.80
2017-06-16T02:38:26.901Z,84.30
2017-06-16T02:40:58.444Z,84.30
2017-06-16T02:43:30.672Z,84.60
2017-06-16T02:46:02.210Z,84.60
2017-06-16T02:48:33.810Z,84.40
2017-06-16T02:51:05.314Z,84.60
2017-06-16T02:53:36.821Z,84.60
2017-06-16T02:56:08.314Z,84.90
2017-06-16T02:58:40.598Z,85.10
2017-06-16T03:01:12.104Z,85.10
2017-06-16T03:03:43.658Z,85.10
2017-06-16T03:06:15.934Z,85.20
2017-06-16T03:09:00.534Z,84.90
2017-06-16T03:11:32.046Z,84.80
2017-06-16T03:14:04.354Z,85.90
2017-06-16T03:16:35.864Z,85.50
2017-06-16T03:19:08.148Z,84.30
2017-06-16T03:21:46.402Z,85.10
2017-06-16T03:24:24.106Z,85.00
2017-06-16T03:26:55.594Z,84.50
2017-06-16T03:29:27.906Z,83.40
2017-06-16T03:31:59.362Z,83.40
2017-06-16T03:34:30.969Z,83.50
2017-06-16T03:37:03.200Z,84.10
2017-06-16T03:39:34.741Z,83.10
2017-06-16T03:42:06.244Z,82.60
2017-06-16T03:44:37.824Z,82.50
2017-06-16T03:47:09.301Z,82.90
2017-06-16T03:49:40.833Z,83.00
2017-06-16T03:52:12.366Z,83.00
2017-06-16T03:54:44.640Z,82.20
2017-06-16T03:57:16.469Z,82.10
2017-06-16T03:59:47.974Z,81.50
2017-06-16T04:02:19.528Z,81.00
2017-06-16T04:04:51.129Z,81.40
2017-06-16T04:07:22.641Z,81.20
2017-06-16T04:09:54.189Z,81.70
2017-06-16T04:12:25.672Z,82.20
2017-06-16T04:14:57.246Z,81.30
2017-06-16T04:17:29.494Z,82.60
2017-06-16T04:20:01.056Z,81.80
2017-06-16T04:22:32.573Z,82.50
2017-06-16T04:25:04.132Z,82.30
2017-06-16T04:27:35.969Z,82.80
2017-06-16T04:30:08.494Z,82.60
2017-06-16T04:32:40.037Z,82.90
2017-06-16T04:35:11.618Z,82.40
2017-06-16T04:37:43.137Z,82.10
2017-06-16T04:40:14.701Z,82.20
2017-06-16T04:42:46.243Z,83.80
2017-06-16T04:45:17.825Z,84.30
2017-06-16T04:47:49.381Z,84.00
2017-06-16T04:50:20.869Z,83.10
2017-06-16T04:52:52.372Z,82.60
2017-06-16T04:55:23.941Z,82.40
2017-06-16T04:57:57.146Z,82.90
2017-06-16T05:00:28.703Z,83.20
2017-06-16T05:03:01.009Z,82.00
2017-06-16T05:05:33.349Z,82.30
2017-06-16T05:08:04.880Z,82.30
2017-06-16T05:10:37.977Z,81.60
2017-06-16T05:13:10.257Z,82.10
2017-06-16T05:15:41.990Z,81.60
2017-06-16T05:18:13.690Z,82.20
2017-06-16T05:20:45.500Z,81.30
2017-06-16T05:23:22.989Z,81.30
2017-06-16T05:25:54.634Z,81.10
2017-06-16T05:28:26.938Z,80.80
2017-06-16T05:30:58.717Z,81.50
2017-06-16T05:33:30.253Z,83.60
2017-06-16T05:36:01.878Z,82.50
2017-06-16T05:38:33.388Z,80.80
2017-06-16T05:41:04.985Z,83.10
2017-06-16T05:43:36.460Z,81.70
2017-06-16T05:46:08.861Z,80.30
2017-06-16T05:48:40.421Z,79.70
2017-06-16T05:51:12.028Z,80.00
2017-06-16T05:53:43.542Z,79.50
2017-06-16T05:56:15.218Z,78.10
2017-06-16T05:58:46.697Z,78.70
2017-06-16T06:01:18.983Z,81.20
2017-06-16T06:03:45.433Z,81.00
2017-06-16T06:06:16.914Z,79.70
2017-06-16T06:08:48.437Z,79.40
2017-06-16T06:11:19.913Z,77.20
2017-06-16T06:13:51.470Z,76.10
2017-06-16T06:16:23.005Z,76.60
2017-06-16T06:18:54.643Z,77.20
2017-06-16T06:21:26.153Z,75.80
2017-06-16T06:23:57.719Z,77.10
2017-06-16T06:26:29.229Z,76.80
2017-06-16T06:29:00.782Z,78.80
2017-06-16T06:31:32.285Z,79.30
2017-06-16T06:34:04.592Z,79.80
2017-06-16T06:36:36.083Z,79.70
2017-06-16T06:39:07.650Z,79.80
2017-06-16T06:41:39.938Z,78.40
2017-06-16T06:44:12.139Z,79.90
2017-06-16T06:46:43.668Z,79.90
2017-06-16T06:49:15.158Z,80.00
2017-06-16T06:54:25.001Z,78.60
2017-06-16T06:56:56.553Z,79.40
2017-06-16T06:59:28.100Z,78.80
2017-06-16T07:01:59.617Z,80.00
2017-06-16T07:04:31.915Z,78.60
2017-06-16T07:07:03.460Z,78.60
2017-06-16T07:09:34.993Z,79.50
2017-06-16T07:12:07.249Z,79.30
2017-06-16T07:14:38.801Z,79.10
2017-06-16T07:17:10.313Z,78.90
2017-06-16T07:19:41.837Z,80.60
2017-06-16T07:22:14.125Z,80.70
2017-06-16T07:24:45.648Z,80.60
2017-06-16T07:27:17.880Z,81.10
2017-06-16T07:29:49.365Z,80.90
2017-06-16T07:32:21.045Z,81.90
2017-06-16T07:34:52.536Z,80.80
2017-06-16T07:37:24.087Z,82.50
2017-06-16T07:39:55.580Z,82.60
2017-06-16T07:42:27.913Z,81.50
2017-06-16T07:44:59.405Z,81.40
2017-06-16T07:47:31.800Z,81.60
2017-06-16T07:50:03.332Z,81.50
2017-06-16T07:52:35.577Z,79.90
2017-06-16T07:55:07.142Z,79.90
2017-06-16T07:57:38.657Z,80.00
2017-06-16T08:00:10.193Z,77.00
2017-06-16T08:02:41.749Z,76.20
2017-06-16T08:05:13.267Z,75.20
2017-06-16T08:07:45.566Z,72.80
2017-06-16T08:10:17.073Z,72.70
2017-06-16T08:12:48.604Z,73.50
2017-06-16T08:15:15.193Z,75.00
2017-06-16T08:17:47.556Z,70.90
2017-06-16T08:20:19.085Z,70.60
2017-06-16T08:22:50.614Z,69.20
2017-06-16T08:25:22.205Z,70.30
2017-06-16T08:27:54.441Z,68.30
2017-06-16T08:30:25.974Z,68.20
2017-06-16T08:32:57.449Z,66.80
2017-06-16T08:35:29.190Z,67.90
2017-06-16T08:38:00.704Z,65.40
2017-06-16T08:40:32.566Z,67.70
2017-06-16T08:43:04.103Z,67.20
2017-06-16T08:45:35.669Z,66.30
2017-06-16T08:50:20.586Z,65.20
2017-06-16T08:53:00.473Z,65.00
2017-06-16T08:55:31.912Z,61.20
2017-06-16T08:58:03.755Z,58.10
2017-06-16T09:00:35.222Z,54.80
2017-06-16T09:03:25.217Z,53.50
2017-06-16T09:05:56.722Z,54.40
2017-06-16T09:08:28.233Z,56.80
2017-06-16T09:10:59.677Z,57.10
2017-06-16T09:13:32.045Z,58.40
2017-06-16T09:16:03.573Z,57.90
2017-06-16T09:18:35.153Z,58.50
2017-06-16T09:21:07.402Z,57.00
2017-06-16T09:23:39.154Z,57.00
2017-06-16T09:26:10.665Z,55.90
2017-06-16T09:28:42.214Z,54.90
2017-06-16T09:31:13.739Z,54.40
2017-06-16T09:33:45.277Z,57.20
2017-06-16T09:36:16.745Z,56.70
2017-06-16T09:38:48.996Z,58.70
2017-06-16T09:41:20.465Z,58.60
2017-06-16T09:43:52.029Z,57.50
2017-06-16T09:46:24.292Z,57.00
2017-06-16T09:48:56.537Z,57.60
2017-06-16T09:51:28.055Z,57.60
2017-06-16T09:53:59.733Z,56.30
2017-06-16T09:56:31.225Z,57.80
2017-06-16T09:59:03.526Z,58.00
2017-06-16T10:01:35.041Z,57.90
2017-06-16T10:04:07.309Z,59.00
2017-06-16T10:06:39.545Z,60.00
2017-06-16T10:09:11.101Z,59.30
2017-06-16T10:11:42.653Z,59.00
2017-06-16T10:14:14.197Z,59.80
2017-06-16T10:16:45.657Z,60.10
2017-06-16T10:19:17.533Z,60.10
2017-06-16T10:21:49.056Z,61.00
2017-06-16T10:24:20.592Z,60.50
2017-06-16T10:26:52.104Z,61.00
2017-06-16T10:29:24.404Z,60.60
2017-06-16T10:31:55.918Z,60.60
2017-06-16T10:34:28.228Z,60.70
2017-06-16T10:36:59.737Z,60.70
2017-06-16T10:39:32.015Z,62.30
2017-06-16T10:42:03.492Z,62.20
2017-06-16T10:44:35.705Z,62.30
2017-06-16T10:47:07.318Z,62.30
2017-06-16T10:49:38.837Z,62.40
2017-06-16T10:52:10.377Z,62.90
2017-06-16T10:54:41.868Z,63.20
2017-06-16T10:57:14.146Z,62.80
2017-06-16T10:59:45.661Z,62.60
2017-06-16T11:02:17.374Z,63.40
2017-06-16T11:04:48.885Z,62.90
2017-06-16T11:07:21.221Z,63.90
2017-06-16T11:09:52.718Z,63.80
2017-06-16T11:12:25.120Z,66.30
2017-06-16T11:14:56.629Z,66.30
2017-06-16T11:17:28.168Z,67.90
2017-06-16T11:19:59.653Z,67.80
2017-06-16T11:22:31.209Z,67.40
2017-06-16T11:25:02.719Z,67.90
2017-06-16T11:29:03.893Z,68.60
2017-06-16T11:31:30.302Z,67.20
2017-06-16T11:33:56.877Z,65.00
2017-06-16T11:36:23.290Z,63.90
2017-06-16T11:38:49.805Z,64.80
2017-06-16T11:41:16.337Z,63.50
2017-06-16T11:43:42.780Z,64.70
2017-06-16T11:46:09.252Z,65.20
2017-06-16T11:48:35.712Z,65.70
2017-06-16T11:51:02.912Z,64.10
2017-06-16T11:53:29.436Z,64.10
2017-06-16T11:55:56.073Z,63.80
2017-06-16T11:58:23.021Z,63.60
2017-06-16T12:00:50.553Z,61.20
2017-06-16T12:03:17.137Z,61.20
2017-06-16T12:05:44.445Z,62.00
2017-06-16T12:08:10.993Z,62.00
2017-06-16T12:10:37.535Z,61.00
2017-06-16T12:13:04.121Z,63.20
2017-06-16T12:15:31.428Z,59.50
2017-06-16T12:17:57.949Z,59.40
2017-06-16T12:20:24.513Z,61.00
2017-06-16T12:22:51.828Z,61.80
2017-06-16T12:25:18.394Z,61.80
2017-06-16T12:27:45.014Z,60.20
2017-06-16T12:30:11.632Z,59.00
2017-06-16T12:32:38.437Z,60.10
2017-06-16T12:35:04.933Z,59.80
2017-06-16T12:37:46.321Z,59.00
2017-06-16T12:40:13.181Z,60.10
2017-06-16T12:42:39.708Z,58.20
2017-06-16T12:45:06.131Z,60.70
2017-06-16T12:47:32.535Z,58.90
2017-06-16T12:50:00.086Z,59.90
2017-06-16T12:52:26.524Z,59.80
2017-06-16T12:54:53.326Z,62.60
2017-06-16T12:57:20.594Z,62.20
2017-06-16T12:59:47.808Z,64.10
2017-06-16T13:02:14.385Z,64.10
2017-06-16T13:04:40.792Z,63.60
2017-06-16T13:07:07.866Z,62.60
2017-06-16T13:09:35.236Z,62.20
2017-06-16T13:12:02.420Z,64.40
2017-06-16T13:14:28.821Z,63.60
2017-06-16T13:16:55.948Z,62.20
2017-06-16T13:19:22.389Z,62.20
2017-06-16T13:21:48.788Z,60.60
2017-06-16T13:24:15.211Z,63.20
2017-06-16T13:26:41.648Z,58.00
2017-06-16T13:29:08.092Z,59.70
2017-06-16T13:31:34.518Z,55.20
2017-06-16T13:34:00.918Z,55.00
2017-06-16T13:36:27.371Z,55.80
2017-06-16T13:38:53.762Z,56.10
2017-06-16T13:41:20.940Z,52.70
2017-06-16T13:43:47.346Z,52.70
2017-06-16T13:46:13.762Z,52.60
2017-06-16T13:48:40.201Z,49.90
2017-06-16T13:51:06.597Z,49.10
2017-06-16T13:53:33.028Z,50.40
2017-06-16T13:55:59.429Z,49.00
2017-06-16T13:58:25.837Z,47.90
2017-06-16T14:00:52.324Z,47.80
2017-06-16T14:03:18.725Z,47.90
2017-06-16T14:05:45.140Z,49.00
2017-06-16T14:08:12.325Z,46.90
2017-06-16T14:10:38.724Z,46.90
2017-06-16T14:13:05.134Z,48.40
2017-06-16T14:15:31.588Z,46.70
2017-06-16T14:17:58.020Z,46.50
2017-06-16T14:20:24.426Z,47.70
2017-06-16T14:22:50.812Z,46.90
2017-06-16T14:25:17.381Z,47.30
2017-06-16T14:27:43.789Z,47.50
2017-06-16T14:30:10.213Z,48.90
2017-06-16T14:32:36.649Z,45.40
2017-06-16T14:35:03.060Z,46.20
2017-06-16T14:37:29.489Z,45.90
2017-06-16T14:39:56.620Z,47.60
2017-06-16T14:42:23.376Z,47.50
2017-06-16T14:44:49.889Z,47.20
2017-06-16T14:47:16.289Z,46.80
2017-06-16T14:49:42.701Z,47.60
2017-06-16T14:52:09.505Z,49.70
2017-06-16T14:54:37.012Z,48.70
2017-06-16T14:57:03.397Z,48.70
2017-06-16T14:59:29.853Z,49.00
2017-06-16T15:01:57.004Z,47.90
2017-06-16T15:04:23.405Z,47.80
2017-06-16T15:06:49.863Z,48.60
2017-06-16T15:09:17.005Z,48.80
2017-06-16T15:11:43.393Z,48.90
2017-06-16T15:14:09.836Z,50.70
2017-06-16T15:16:36.232Z,47.60
2017-06-16T15:19:02.669Z,49.30
2017-06-16T15:21:33.996Z,50.40
2017-06-16T15:24:15.352Z,52.20
2017-06-16T15:26:42.032Z,51.10
2017-06-16T15:29:08.447Z,52.30
2017-06-16T15:31:41.892Z,52.60
2017-06-16T15:34:08.295Z,52.70
2017-06-16T15:36:34.703Z,51.60
2017-06-16T15:39:02.238Z,53.40
2017-06-16T15:41:28.631Z,53.30
2017-06-16T15:43:55.031Z,53.80
2017-06-16T15:46:22.333Z,52.70
2017-06-16T15:48:48.740Z,52.70
2017-06-16T15:51:15.160Z,53.20
2017-06-16T15:53:41.682Z,54.10
2017-06-16T15:56:08.079Z,53.40
2017-06-16T15:58:34.484Z,53.20
2017-06-16T16:01:00.929Z,51.90
2017-06-16T16:03:27.320Z,52.00
2017-06-16T16:05:53.733Z,52.40
2017-06-16T16:08:20.198Z,52.70
2017-06-16T16:10:46.666Z,53.30
2017-06-16T16:13:13.064Z,53.40
2017-06-16T16:15:39.484Z,53.40
2017-06-16T16:18:06.688Z,53.80
2017-06-16T16:20:33.091Z,53.70
2017-06-16T16:22:59.496Z,53.70
2017-06-16T16:25:25.948Z,53.20
2017-06-16T16:27:52.341Z,53.90
2017-06-16T16:30:18.768Z,54.90
2017-06-16T16:32:45.203Z,55.50
2017-06-16T16:35:11.612Z,53.80
2017-06-16T16:37:38.025Z,55.00
2017-06-16T16:40:11.658Z,55.90
2017-06-16T16:42:38.104Z,54.80
2017-06-16T16:45:04.523Z,54.80
2017-06-16T16:47:30.942Z,55.50
2017-06-16T16:49:57.378Z,57.20
2017-06-16T16:52:23.788Z,55.30
2017-06-16T16:54:50.199Z,55.70
2017-06-16T16:57:16.642Z,54.30
2017-06-16T16:59:43.045Z,53.40
2017-06-16T17:02:10.196Z,55.00
2017-06-16T17:04:36.646Z,54.30
2017-06-16T17:07:03.092Z,53.50
2017-06-16T17:09:29.498Z,54.70
2017-06-16T17:11:55.904Z,55.80
2017-06-16T17:14:22.439Z,57.30
2017-06-16T17:16:48.849Z,56.40
2017-06-16T17:19:15.256Z,56.70
2017-06-16T17:21:41.685Z,56.40
2017-06-16T17:24:08.096Z,56.80
2017-06-16T17:26:35.259Z,57.00
2017-06-16T17:29:01.712Z,57.00
2017-06-16T17:31:28.121Z,57.40
2017-06-16T17:33:54.525Z,56.50
2017-06-16T17:36:20.969Z,58.40
2017-06-16T17:38:47.413Z,57.60
2017-06-16T17:41:14.601Z,57.70
2017-06-16T17:43:41.004Z,57.70
2017-06-16T17:46:07.453Z,58.50
2017-06-16T17:48:33.887Z,58.10
2017-06-16T17:51:00.352Z,58.60
2017-06-16T17:53:26.764Z,57.70
2017-06-16T17:55:53.172Z,58.30
2017-06-16T17:58:19.599Z,57.60
2017-06-16T18:00:46.020Z,57.00
2017-06-16T18:03:13.180Z,57.80
2017-06-16T18:05:39.661Z,57.90
2017-06-16T18:08:06.073Z,57.10
2017-06-16T18:10:32.528Z,57.40
2017-06-16T18:12:58.935Z,57.60
2017-06-16T18:15:25.388Z,57.70
2017-06-16T18:17:51.796Z,57.70
2017-06-16T18:20:18.192Z,58.40
2017-06-16T18:22:44.868Z,58.20
2017-06-16T18:25:11.278Z,58.80
2017-06-16T18:27:38.414Z,60.80
2017-06-16T18:30:04.853Z,60.70
2017-06-16T18:32:32.017Z,61.30
2017-06-16T18:34:59.157Z,62.90
2017-06-16T18:37:26.345Z,64.70
2017-06-16T18:39:52.745Z,63.90
2017-06-16T18:42:19.188Z,64.60
2017-06-16T18:44:45.661Z,65.20
2017-06-16T18:47:12.044Z,65.80
2017-06-16T18:49:38.430Z,66.90
2017-06-16T18:52:04.874Z,66.20
2017-06-16T18:54:31.277Z,65.70
2017-06-16T18:56:57.748Z,66.40
2017-06-16T18:59:24.195Z,66.20
2017-06-16T19:01:51.197Z,66.40
2017-06-16T19:04:17.591Z,67.40
2017-06-16T19:06:44.041Z,67.20
2017-06-16T19:09:10.441Z,67.70
2017-06-16T19:11:37.672Z,69.50
2017-06-16T19:14:04.065Z,68.50
2017-06-16T19:16:30.469Z,67.60
2017-06-16T19:18:57.945Z,69.10
2017-06-16T19:21:31.421Z,69.00
2017-06-16T19:23:58.597Z,69.70
2017-06-16T19:26:25.012Z,69.70
2017-06-16T19:28:52.193Z,70.10
2017-06-16T19:31:18.916Z,70.00
2017-06-16T19:33:45.397Z,69.70
2017-06-16T19:36:11.852Z,70.10
2017-06-16T19:38:38.265Z,69.80
2017-06-16T19:41:04.728Z,70.50
2017-06-16T19:43:31.930Z,71.20
2017-06-16T19:45:58.337Z,71.20
2017-06-16T19:48:24.785Z,70.20
2017-06-16T19:50:51.189Z,71.20
2017-06-16T19:53:17.644Z,71.00
2017-06-16T19:55:44.064Z,71.40
2017-06-16T19:58:10.465Z,71.40
2017-06-16T20:00:37.663Z,71.30
2017-06-16T20:03:04.378Z,70.70
2017-06-16T20:05:30.880Z,70.10
2017-06-16T20:07:57.308Z,67.80
2017-06-16T20:10:23.704Z,63.30
2017-06-16T20:12:50.139Z,61.40
2017-06-16T20:15:16.550Z,58.30
2017-06-16T20:17:43.040Z,56.50
2017-06-16T20:20:09.456Z,58.10
2017-06-16T20:22:35.869Z,59.50
2017-06-16T20:25:02.313Z,58.70
2017-06-16T20:27:28.782Z,52.50
2017-06-16T20:29:55.216Z,53.00
2017-06-16T20:32:21.608Z,52.50
2017-06-16T20:34:48.262Z,51.60
2017-06-16T20:37:14.677Z,48.00
2017-06-16T20:39:41.088Z,47.20
2017-06-16T20:42:07.620Z,48.00
2017-06-16T20:44:34.019Z,47.20
2017-06-16T20:47:00.408Z,48.00
2017-06-16T20:49:26.882Z,47.90
2017-06-16T20:51:53.316Z,46.10
2017-06-16T20:54:19.725Z,47.10
2017-06-16T20:56:46.112Z,48.80
2017-06-16T20:59:12.625Z,47.10
2017-06-16T21:01:39.768Z,46.80
2017-06-16T21:04:06.168Z,46.80
2017-06-16T21:06:32.624Z,46.70
2017-06-16T21:08:59.017Z,45.90
2017-06-16T21:11:25.452Z,45.70
2017-06-16T21:13:51.861Z,44.60
2017-06-16T21:16:18.268Z,45.20
2017-06-16T21:18:44.692Z,46.00
2017-06-16T21:21:18.268Z,45.30
2017-06-16T21:23:44.669Z,44.90
2017-06-16T21:26:11.152Z,45.30
2017-06-16T21:28:37.549Z,43.30
2017-06-16T21:31:04.021Z,43.30
2017-06-16T21:33:30.429Z,45.00
2017-06-16T21:35:56.837Z,44.60
2017-06-16T21:38:23.265Z,45.10
2017-06-16T21:40:49.669Z,44.40
2017-06-16T21:43:16.843Z,43.20
2017-06-16T21:45:43.293Z,43.20
2017-06-16T21:48:09.693Z,42.00
2017-06-16T21:50:36.857Z,44.30
2017-06-16T21:53:03.304Z,44.20
2017-06-16T21:55:29.853Z,44.80
2017-06-16T21:57:56.288Z,44.90
2017-06-16T22:00:23.493Z,45.40
2017-06-16T22:02:50.973Z,46.50
2017-06-16T22:05:17.396Z,46.40
2017-06-16T22:07:43.804Z,45.90
2017-06-16T22:10:10.228Z,46.20
2017-06-16T22:12:36.628Z,45.30
2017-06-16T22:15:03.057Z,44.30
2017-06-16T22:17:29.480Z,45.40
2017-06-16T22:19:55.903Z,45.50
2017-06-16T22:22:22.309Z,44.70
2017-06-16T22:24:49.504Z,43.40
2017-06-16T22:27:16.056Z,43.40
2017-06-16T22:29:42.845Z,41.40
2017-06-16T22:32:09.402Z,43.50
2017-06-16T22:34:42.896Z,44.00
2017-06-16T22:37:09.492Z,44.40
2017-06-16T22:39:35.989Z,44.40
2017-06-16T22:42:02.457Z,44.20
2017-06-16T22:44:28.863Z,45.40
2017-06-16T22:46:55.272Z,45.20
2017-06-16T22:49:21.735Z,45.00
2017-06-16T22:51:48.161Z,44.90
2017-06-16T22:54:14.587Z,46.60
2017-06-16T22:56:40.985Z,46.90
2017-06-16T22:59:22.360Z,47.30
2017-06-16T23:01:49.505Z,49.00
2017-06-16T23:04:16.696Z,49.30
2017-06-16T23:06:43.169Z,49.30
2017-06-16T23:09:16.692Z,50.00
2017-06-16T23:11:43.905Z,48.60
2017-06-16T23:14:10.319Z,48.60
2017-06-16T23:16:36.731Z,48.50
2017-06-16T23:19:03.156Z,49.10
2017-06-16T23:21:29.560Z,47.90
2017-06-16T23:23:56.759Z,48.20
2017-06-16T23:26:23.154Z,48.60
2017-06-16T23:28:49.592Z,48.10
2017-06-16T23:31:16.725Z,45.70
2017-06-16T23:33:43.125Z,45.60
2017-06-16T23:36:09.565Z,42.50
2017-06-16T23:38:35.968Z,43.00
2017-06-16T23:41:02.369Z,44.30
2017-06-16T23:43:29.519Z,45.30
2017-06-16T23:45:56.669Z,44.10
2017-06-16T23:48:23.848Z,46.20
2017-06-16T23:50:50.252Z,46.20
2017-06-16T23:53:17.377Z,41.60
2017-06-16T23:55:43.834Z,41.50
2017-06-16T23:58:10.972Z,43.60
